Country
Station

 

Weather  for  Rovaniemi  -  Finland    Finland

  
29 °C (84 °F)
    
 
 

Current METAR for Rovaniemi is :

EFRO 171050Z AUTO 21004KT 9999 NCD 29/12 Q1020

 

This is a report for Rovaniemi - Finland.
 
The report was made 22 minutes ago, at 10:50 UTC .
The wind was blowing at a speed of 2.1 meters per second (4.6 miles per hour) from south/southwest (210°).
 
The temperature was 29 °C (84 °F), with a dew-point at 12 °C (54 °F).
The temperature felt like 28 °C (83 °F).
 
The atmospheric pressure was 1020 hPa (30.12 inHg).
The relative humidity was 35.0%.
 
The overall visibility was greater than 10 kilometers (6.2 miles).
 

 
 
 
 

Country :   A   B   C   D   E   F   G   H   I   J   K   L   M   N   O   P   Q   R   S   T   U   V   W   Y   Z

 

Site Info  |  Disclaimer  |  Credits  |  Privacy
Contact us  |  Add to favorites
© 2013-2018 METARs - All rights reserved